createdAt,value
2019-01-26T00:01:51.837Z,24.60
2019-01-26T00:04:25.005Z,26.00
2019-01-26T00:06:55.872Z,24.93
2019-01-26T00:09:24.304Z,26.43
2019-01-26T00:12:01.552Z,24.97
2019-01-26T00:14:30.135Z,22.53
2019-01-26T00:16:58.521Z,25.03
2019-01-26T00:19:27.853Z,23.80
2019-01-26T00:22:00.812Z,24.93
2019-01-26T00:24:33.617Z,24.70
2019-01-26T00:27:08.341Z,23.87
2019-01-26T00:29:39.517Z,25.57
2019-01-26T00:32:12.909Z,24.63
2019-01-26T00:34:46.812Z,24.73
2019-01-26T00:37:15.244Z,25.00
2019-01-26T00:39:46.609Z,24.00
2019-01-26T00:42:16.538Z,24.30
2019-01-26T00:44:45.174Z,24.07
2019-01-26T00:47:13.576Z,24.03
2019-01-26T00:49:41.973Z,24.13
2019-01-26T00:52:11.181Z,24.43
2019-01-26T00:54:41.449Z,22.60
2019-01-26T00:57:10.075Z,22.23
2019-01-26T00:59:41.477Z,22.27
2019-01-26T01:02:09.861Z,23.17
2019-01-26T01:04:40.088Z,23.20
2019-01-26T01:07:10.941Z,22.30
2019-01-26T01:09:42.055Z,22.63
2019-01-26T01:12:10.470Z,20.43
2019-01-26T01:14:40.536Z,20.80
2019-01-26T01:17:20.907Z,20.10
2019-01-26T01:19:52.450Z,20.60
2019-01-26T01:22:32.422Z,21.17
2019-01-26T01:25:07.050Z,22.13
2019-01-26T01:27:35.695Z,20.47
2019-01-26T01:30:10.096Z,20.00
2019-01-26T01:32:44.245Z,18.90
2019-01-26T01:35:12.656Z,19.33
2019-01-26T01:37:41.059Z,19.90
2019-01-26T01:40:12.525Z,19.37
2019-01-26T01:42:41.693Z,18.43
2019-01-26T01:45:13.168Z,18.80
2019-01-26T01:47:43.248Z,18.33
2019-01-26T01:50:13.015Z,19.33
2019-01-26T01:52:53.001Z,17.50
2019-01-26T01:55:23.076Z,17.90
2019-01-26T01:57:56.001Z,17.87
2019-01-26T02:00:25.651Z,16.57
2019-01-26T02:03:01.645Z,17.50
2019-01-26T02:05:30.033Z,17.03
2019-01-26T02:08:01.305Z,17.00
2019-01-26T02:10:35.445Z,15.67
2019-01-26T02:13:12.306Z,15.90
2019-01-26T02:15:40.704Z,14.73
2019-01-26T02:18:09.157Z,15.93
2019-01-26T02:20:38.385Z,15.47
2019-01-26T02:23:19.004Z,15.87
2019-01-26T02:25:50.185Z,16.40
2019-01-26T02:28:21.448Z,15.67
2019-01-26T02:30:51.497Z,15.70
2019-01-26T02:33:23.134Z,15.27
2019-01-26T02:35:53.213Z,14.50
2019-01-26T02:38:21.618Z,14.43
2019-01-26T02:40:52.301Z,14.30
2019-01-26T02:43:20.968Z,15.27
2019-01-26T02:45:49.445Z,15.13
2019-01-26T02:48:17.848Z,14.77
2019-01-26T02:50:50.925Z,15.93
2019-01-26T02:53:20.929Z,14.23
2019-01-26T02:55:49.316Z,14.50
2019-01-26T02:58:34.171Z,16.03
2019-01-26T03:01:05.855Z,15.40
2019-01-26T03:03:35.562Z,15.10
2019-01-26T03:06:07.407Z,13.87
2019-01-26T03:08:36.033Z,15.03
2019-01-26T03:11:07.205Z,14.27
2019-01-26T03:13:38.981Z,14.83
2019-01-26T03:16:07.417Z,14.17
2019-01-26T03:18:35.819Z,14.33
2019-01-26T03:21:17.433Z,14.33
2019-01-26T03:23:54.357Z,14.50
2019-01-26T03:26:23.848Z,15.03
2019-01-26T03:29:01.400Z,15.07
2019-01-26T03:31:31.438Z,15.03
2019-01-26T03:34:01.483Z,14.93
2019-01-26T03:36:37.719Z,15.10
2019-01-26T03:39:10.075Z,15.33
2019-01-26T03:41:47.341Z,15.63
2019-01-26T03:44:15.809Z,15.20
2019-01-26T03:46:50.256Z,16.00
2019-01-26T03:49:27.526Z,15.83
2019-01-26T03:51:57.213Z,14.00
2019-01-26T03:54:28.595Z,13.67
2019-01-26T03:56:58.852Z,14.60
2019-01-26T03:59:30.255Z,14.20
2019-01-26T04:01:58.649Z,14.33
2019-01-26T04:04:30.133Z,14.67
2019-01-26T04:07:06.364Z,13.80
2019-01-26T04:09:37.693Z,13.77
2019-01-26T04:12:06.083Z,14.20
2019-01-26T04:14:43.634Z,15.80
2019-01-26T04:17:26.470Z,14.00
2019-01-26T04:19:54.875Z,12.60
2019-01-26T04:22:26.398Z,14.10
2019-01-26T04:24:54.786Z,12.47
2019-01-26T04:27:29.233Z,11.57
2019-01-26T04:29:59.277Z,12.17
2019-01-26T04:32:30.612Z,11.70
2019-01-26T04:35:11.237Z,10.60
2019-01-26T04:37:39.629Z,11.23
2019-01-26T04:40:16.568Z,10.77
2019-01-26T04:42:47.670Z,11.00
2019-01-26T04:45:23.396Z,11.10
2019-01-26T04:47:55.846Z,10.40
2019-01-26T04:50:24.230Z,10.80
2019-01-26T04:52:52.628Z,10.30
2019-01-26T04:55:25.623Z,10.97
2019-01-26T04:57:56.939Z,11.37
2019-01-26T05:00:30.982Z,11.27
2019-01-26T05:02:59.620Z,11.20
2019-01-26T05:05:32.570Z,10.33
2019-01-26T05:08:01.170Z,11.00
2019-01-26T05:10:35.617Z,11.00
2019-01-26T05:13:08.570Z,10.77
2019-01-26T05:15:38.611Z,12.60
2019-01-26T05:18:09.933Z,11.57
2019-01-26T05:20:43.802Z,11.73
2019-01-26T05:23:14.790Z,11.63
2019-01-26T05:25:43.177Z,11.77
2019-01-26T05:28:20.517Z,11.00
2019-01-26T05:30:48.918Z,12.80
2019-01-26T05:33:17.302Z,12.70
2019-01-26T05:35:47.337Z,11.63
2019-01-26T05:38:21.415Z,12.40
2019-01-26T05:40:49.806Z,11.83
2019-01-26T05:43:19.213Z,12.07
2019-01-26T05:45:50.225Z,11.20
2019-01-26T05:48:24.581Z,12.17
2019-01-26T05:51:02.048Z,12.40
2019-01-26T05:53:38.590Z,11.50
2019-01-26T05:56:09.898Z,11.97
2019-01-26T05:58:38.476Z,12.07
2019-01-26T06:01:14.187Z,12.27
2019-01-26T06:03:45.322Z,11.97
2019-01-26T06:06:16.618Z,11.50
2019-01-26T06:08:46.662Z,12.00
2019-01-26T06:11:18.226Z,12.30
2019-01-26T06:13:48.410Z,11.67
2019-01-26T06:16:20.762Z,11.47
2019-01-26T06:18:52.159Z,11.87
2019-01-26T06:21:24.887Z,12.10
2019-01-26T06:23:53.274Z,11.80
2019-01-26T06:26:21.665Z,12.53
2019-01-26T06:28:56.512Z,13.33
2019-01-26T06:31:27.658Z,12.60
2019-01-26T06:34:06.920Z,12.03
2019-01-26T06:36:36.956Z,12.77
2019-01-26T06:39:14.407Z,11.77
2019-01-26T06:41:45.939Z,12.57
2019-01-26T06:44:17.095Z,13.17
2019-01-26T06:46:46.817Z,12.97
2019-01-26T06:49:15.191Z,13.33
2019-01-26T06:51:47.649Z,11.80
2019-01-26T06:54:17.582Z,13.33
2019-01-26T06:56:46.013Z,12.83
2019-01-26T06:59:21.654Z,12.57
2019-01-26T07:01:57.093Z,13.13
2019-01-26T07:04:32.844Z,13.67
2019-01-26T07:07:09.698Z,12.33
2019-01-26T07:09:40.852Z,13.03
2019-01-26T07:12:14.033Z,12.30
2019-01-26T07:14:42.416Z,12.23
2019-01-26T07:17:13.865Z,12.90
2019-01-26T07:19:47.661Z,12.30
2019-01-26T07:22:16.008Z,12.83
2019-01-26T07:24:44.405Z,12.67
2019-01-26T07:27:20.341Z,12.70
2019-01-26T07:29:51.652Z,12.23
2019-01-26T07:32:22.929Z,12.57
2019-01-26T07:34:51.558Z,12.60
2019-01-26T07:37:21.190Z,13.70
2019-01-26T07:39:54.224Z,11.50
2019-01-26T07:42:22.850Z,12.33
2019-01-26T07:45:00.446Z,12.53
2019-01-26T07:47:31.134Z,11.80
2019-01-26T07:50:00.818Z,13.00
2019-01-26T07:52:29.192Z,12.57
2019-01-26T07:54:57.592Z,12.60
2019-01-26T07:57:29.193Z,12.70
2019-01-26T07:59:57.595Z,11.97
2019-01-26T08:02:25.983Z,11.63
2019-01-26T08:04:59.828Z,13.10
2019-01-26T08:07:28.232Z,11.30
2019-01-26T08:09:56.849Z,12.50
2019-01-26T08:12:28.161Z,11.70
2019-01-26T08:14:56.548Z,12.27
2019-01-26T08:17:27.657Z,11.63
2019-01-26T08:19:58.873Z,12.00
2019-01-26T08:22:30.046Z,11.53
2019-01-26T08:24:58.460Z,11.10
2019-01-26T08:27:32.731Z,11.87
2019-01-26T08:30:01.118Z,11.70
2019-01-26T08:32:36.465Z,11.37
2019-01-26T08:35:07.654Z,11.77
2019-01-26T08:37:39.159Z,12.00
2019-01-26T08:40:10.638Z,11.67
2019-01-26T08:42:41.735Z,10.70
2019-01-26T08:45:17.911Z,11.20
2019-01-26T08:47:44.463Z,11.57
2019-01-26T08:50:16.065Z,11.63
2019-01-26T08:52:46.251Z,11.43
2019-01-26T08:55:21.889Z,12.10
2019-01-26T08:57:50.345Z,11.40
2019-01-26T09:00:25.837Z,11.87
2019-01-26T09:02:56.524Z,11.20
2019-01-26T09:05:36.577Z,10.50
2019-01-26T09:08:05.632Z,10.43
2019-01-26T09:10:34.019Z,10.20
2019-01-26T09:13:02.712Z,10.33
2019-01-26T09:15:32.740Z,10.00
2019-01-26T09:18:04.025Z,10.07
2019-01-26T09:20:32.504Z,10.17
2019-01-26T09:23:06.454Z,9.97
2019-01-26T09:26:00.943Z,8.30
2019-01-26T09:28:29.396Z,8.87
2019-01-26T09:31:00.816Z,9.00
2019-01-26T09:33:29.225Z,9.07
2019-01-26T09:36:04.378Z,8.23
2019-01-26T09:38:33.932Z,7.63
2019-01-26T09:41:02.541Z,7.63
2019-01-26T09:43:30.993Z,7.60
2019-01-26T09:45:59.382Z,7.97
2019-01-26T09:48:36.613Z,7.33
2019-01-26T09:51:08.056Z,7.80
2019-01-26T09:53:39.133Z,7.83
2019-01-26T09:56:07.527Z,7.37
2019-01-26T09:58:42.264Z,7.67
2019-01-26T10:01:13.385Z,7.87
2019-01-26T10:03:49.527Z,7.57
2019-01-26T10:06:24.512Z,8.20
2019-01-26T10:08:55.709Z,8.37
2019-01-26T10:11:24.160Z,8.00
2019-01-26T10:14:01.033Z,7.00
2019-01-26T10:16:31.312Z,8.37
2019-01-26T10:18:59.698Z,8.80
2019-01-26T10:21:37.021Z,7.33
2019-01-26T10:24:05.409Z,8.70
2019-01-26T10:26:33.796Z,7.80
2019-01-26T10:29:02.184Z,8.67
2019-01-26T10:31:30.813Z,8.83
2019-01-26T10:34:07.969Z,7.73
2019-01-26T10:36:38.001Z,7.53
2019-01-26T10:39:10.120Z,8.50
2019-01-26T10:41:42.241Z,7.13
2019-01-26T10:44:18.109Z,7.67
2019-01-26T10:46:49.175Z,7.63
2019-01-26T10:49:17.553Z,7.83
2019-01-26T10:51:50.465Z,8.10
2019-01-26T10:54:20.493Z,7.70
2019-01-26T10:56:50.518Z,8.90
2019-01-26T10:59:26.498Z,8.37
2019-01-26T11:02:00.888Z,8.73
2019-01-26T11:04:32.178Z,8.33
2019-01-26T11:07:02.977Z,9.37
2019-01-26T11:09:34.105Z,8.33
2019-01-26T11:12:02.497Z,7.27
2019-01-26T11:14:30.881Z,8.50
2019-01-26T11:16:59.269Z,8.20
2019-01-26T11:19:36.546Z,8.30
2019-01-26T11:22:05.696Z,7.87
2019-01-26T11:24:37.096Z,7.97
2019-01-26T11:27:08.225Z,8.13
2019-01-26T11:29:41.362Z,7.87
2019-01-26T11:32:15.521Z,8.33
2019-01-26T11:34:43.910Z,8.63
2019-01-26T11:37:15.295Z,8.87
2019-01-26T11:39:45.361Z,8.83
2019-01-26T11:42:14.753Z,8.20
2019-01-26T11:44:44.977Z,8.40
2019-01-26T11:47:14.942Z,8.80
2019-01-26T11:49:44.958Z,8.33
2019-01-26T11:52:16.372Z,8.47
2019-01-26T11:54:49.305Z,8.37
2019-01-26T11:57:19.337Z,7.90
2019-01-26T12:00:13.016Z,8.30
2019-01-26T12:02:43.153Z,8.10
2019-01-26T12:05:13.165Z,7.17
2019-01-26T12:07:41.560Z,8.20
2019-01-26T12:10:16.052Z,7.73
2019-01-26T12:12:47.452Z,8.23
2019-01-26T12:15:18.787Z,7.27
2019-01-26T12:17:48.424Z,8.10
2019-01-26T12:20:18.188Z,8.03
2019-01-26T12:22:46.572Z,8.20
2019-01-26T12:25:17.700Z,9.43
2019-01-26T12:27:52.112Z,8.13
2019-01-26T12:30:20.496Z,6.87
2019-01-26T12:32:49.853Z,6.40
2019-01-26T12:35:18.251Z,5.03
2019-01-26T12:37:46.766Z,5.47
2019-01-26T12:40:18.717Z,5.30
2019-01-26T12:42:48.776Z,4.60
2019-01-26T12:45:22.131Z,5.43
2019-01-26T12:47:50.518Z,3.93
2019-01-26T12:50:21.945Z,4.43
2019-01-26T12:52:59.205Z,4.20
2019-01-26T12:55:47.232Z,4.20
2019-01-26T12:58:16.380Z,4.30
2019-01-26T13:00:44.829Z,4.47
2019-01-26T13:03:13.259Z,4.23
2019-01-26T13:05:41.669Z,4.30
2019-01-26T13:08:12.396Z,3.90
2019-01-26T13:10:44.425Z,4.70
2019-01-26T13:13:12.984Z,5.00
2019-01-26T13:15:41.377Z,5.00
2019-01-26T13:18:09.840Z,4.67
2019-01-26T13:20:38.252Z,4.33
2019-01-26T13:23:09.889Z,5.47
2019-01-26T13:25:39.207Z,5.93
2019-01-26T13:28:08.339Z,5.70
2019-01-26T13:30:36.749Z,5.13
2019-01-26T13:33:07.976Z,5.90
2019-01-26T13:35:36.390Z,5.90
2019-01-26T13:38:05.529Z,5.30
2019-01-26T13:40:36.557Z,6.03
2019-01-26T13:43:05.921Z,6.17
2019-01-26T13:45:35.838Z,6.23
2019-01-26T13:48:04.988Z,5.50
2019-01-26T13:50:33.365Z,5.93
2019-01-26T13:53:04.668Z,6.40
2019-01-26T13:55:33.044Z,6.30
2019-01-26T13:58:04.245Z,6.40
2019-01-26T14:00:35.729Z,6.80
2019-01-26T14:03:05.154Z,6.33
2019-01-26T14:05:36.944Z,5.70
2019-01-26T14:08:08.333Z,5.97
2019-01-26T14:10:38.433Z,6.00
2019-01-26T14:13:06.809Z,6.17
2019-01-26T14:15:38.104Z,5.90
2019-01-26T14:18:07.482Z,5.70
2019-01-26T14:20:41.662Z,5.67
2019-01-26T14:23:13.763Z,5.40
2019-01-26T14:25:45.648Z,5.57
2019-01-26T14:28:14.342Z,5.37
2019-01-26T14:30:46.133Z,5.23
2019-01-26T14:33:14.566Z,5.37
2019-01-26T14:35:43.928Z,4.97
2019-01-26T14:38:12.419Z,5.77
2019-01-26T14:40:40.797Z,5.30
2019-01-26T14:43:12.141Z,5.20
2019-01-26T14:45:40.544Z,5.07
2019-01-26T14:48:09.161Z,5.20
2019-01-26T14:50:43.242Z,5.40
2019-01-26T14:53:14.688Z,5.03
2019-01-26T14:55:47.877Z,4.90
2019-01-26T14:58:16.256Z,4.77
2019-01-26T15:00:50.095Z,5.10
2019-01-26T15:03:18.521Z,5.00
2019-01-26T15:05:46.956Z,5.30
2019-01-26T15:08:15.400Z,4.90
2019-01-26T15:10:43.772Z,5.23
2019-01-26T15:13:17.736Z,4.40
2019-01-26T15:15:46.113Z,4.53
2019-01-26T15:18:14.518Z,5.37
2019-01-26T15:20:46.068Z,5.03
2019-01-26T15:23:17.465Z,5.20
2019-01-26T15:25:46.635Z,5.17
2019-01-26T15:28:15.012Z,5.83
2019-01-26T15:30:43.396Z,5.10
2019-01-26T15:33:13.506Z,6.03
2019-01-26T15:35:44.926Z,5.17
2019-01-26T15:38:13.313Z,6.10
2019-01-26T15:40:41.704Z,5.70
2019-01-26T15:43:11.816Z,6.13
2019-01-26T15:45:43.626Z,5.97
2019-01-26T15:48:19.257Z,4.67
2019-01-26T15:50:47.641Z,5.93
2019-01-26T15:53:21.572Z,5.50
2019-01-26T15:55:52.890Z,5.60
2019-01-26T15:58:21.276Z,5.53
2019-01-26T16:00:52.269Z,5.27
2019-01-26T16:03:20.661Z,5.20
2019-01-26T16:05:50.789Z,5.73
2019-01-26T16:08:24.548Z,5.87
2019-01-26T16:10:52.932Z,5.80
2019-01-26T16:13:24.500Z,5.83
2019-01-26T16:15:52.964Z,6.40
2019-01-26T16:18:22.908Z,5.50
2019-01-26T16:20:57.214Z,5.77
2019-01-26T16:23:28.745Z,5.90
2019-01-26T16:25:58.666Z,5.67
2019-01-26T16:28:27.037Z,5.17
2019-01-26T16:30:55.424Z,5.47
2019-01-26T16:33:35.727Z,5.60
2019-01-26T16:35:54.169Z,5.53
2019-01-26T16:38:22.561Z,5.87
2019-01-26T16:40:50.943Z,5.27
2019-01-26T16:43:21.233Z,5.47
2019-01-26T16:45:52.544Z,5.83
2019-01-26T16:48:20.921Z,5.80
2019-01-26T16:50:49.317Z,5.83
2019-01-26T16:53:19.352Z,5.47
2019-01-26T16:55:47.733Z,6.87
2019-01-26T16:58:16.130Z,6.27
2019-01-26T17:00:46.193Z,6.23
2019-01-26T17:03:16.208Z,6.43
2019-01-26T17:05:44.617Z,6.70
2019-01-26T17:08:13.052Z,6.20
2019-01-26T17:10:44.457Z,6.73
2019-01-26T17:13:15.612Z,7.77
2019-01-26T17:15:45.645Z,7.20
2019-01-26T17:18:16.410Z,7.03
2019-01-26T17:20:44.876Z,7.80
2019-01-26T17:23:17.886Z,7.20
2019-01-26T17:25:50.825Z,6.90
2019-01-26T17:28:19.213Z,6.90
2019-01-26T17:30:48.121Z,7.73
2019-01-26T17:33:22.272Z,7.87
2019-01-26T17:35:50.958Z,7.70
2019-01-26T17:38:19.346Z,7.43
2019-01-26T17:41:11.486Z,7.00
2019-01-26T17:43:42.773Z,7.87
2019-01-26T17:46:12.800Z,8.37
2019-01-26T17:48:41.194Z,7.40
2019-01-26T17:51:09.571Z,7.00
2019-01-26T17:53:42.173Z,8.10
2019-01-26T17:56:11.937Z,7.83
2019-01-26T17:58:41.142Z,7.77
2019-01-26T18:01:12.719Z,7.50
2019-01-26T18:03:44.355Z,8.50
2019-01-26T18:06:16.447Z,8.00
2019-01-26T18:08:44.954Z,8.10
2019-01-26T18:11:19.240Z,7.53
2019-01-26T18:13:47.689Z,7.53
2019-01-26T18:16:16.342Z,7.93
2019-01-26T18:18:44.740Z,8.00
2019-01-26T18:21:14.773Z,7.03
2019-01-26T18:23:46.106Z,7.67
2019-01-26T18:26:16.144Z,7.83
2019-01-26T18:28:44.530Z,7.17
2019-01-26T18:31:15.560Z,7.20
2019-01-26T18:33:45.668Z,6.97
2019-01-26T18:36:14.889Z,7.03
2019-01-26T18:38:46.240Z,6.63
2019-01-26T18:41:14.622Z,6.50
2019-01-26T18:43:43.001Z,6.60
2019-01-26T18:46:13.056Z,6.77
2019-01-26T18:48:42.981Z,6.27
2019-01-26T18:51:11.435Z,6.67
2019-01-26T18:53:42.614Z,6.20
2019-01-26T18:56:18.565Z,5.90
2019-01-26T18:58:46.972Z,6.43
2019-01-26T19:01:16.277Z,6.23
2019-01-26T19:03:50.505Z,6.40
2019-01-26T19:06:18.889Z,6.23
2019-01-26T19:08:47.277Z,6.37
2019-01-26T19:11:15.813Z,6.17
2019-01-26T19:13:44.192Z,5.67
2019-01-26T19:16:13.861Z,5.87
2019-01-26T19:18:42.435Z,6.17
2019-01-26T19:21:15.594Z,6.37
2019-01-26T19:23:52.478Z,6.13
2019-01-26T19:26:30.347Z,5.57
2019-01-26T19:29:07.334Z,6.00
2019-01-26T19:31:40.292Z,5.63
2019-01-26T19:34:08.752Z,6.27
2019-01-26T19:36:37.144Z,6.17
2019-01-26T19:39:07.825Z,6.50
2019-01-26T19:41:36.218Z,5.90
2019-01-26T19:44:05.254Z,5.37
2019-01-26T19:46:33.648Z,6.03
2019-01-26T19:49:02.066Z,5.97
2019-01-26T19:51:30.532Z,6.03
2019-01-26T19:53:58.927Z,5.77
2019-01-26T19:56:27.301Z,5.47
2019-01-26T19:58:55.686Z,5.40
2019-01-26T20:01:24.146Z,5.37
2019-01-26T20:03:52.529Z,5.37
2019-01-26T20:06:20.925Z,5.33
2019-01-26T20:08:49.561Z,4.90
2019-01-26T20:11:18.022Z,5.17
2019-01-26T20:13:46.401Z,5.87
2019-01-26T20:16:14.788Z,5.20
2019-01-26T20:18:43.182Z,4.97
2019-01-26T20:21:17.514Z,5.23
2019-01-26T20:23:41.754Z,4.63
2019-01-26T20:26:10.151Z,4.70
2019-01-26T20:28:38.530Z,4.93
2019-01-26T20:31:06.920Z,4.20
2019-01-26T20:33:35.315Z,4.93
2019-01-26T20:36:03.949Z,4.40
2019-01-26T20:38:32.430Z,5.07
2019-01-26T20:41:00.884Z,5.13
2019-01-26T20:43:29.265Z,5.27
2019-01-26T20:45:58.317Z,5.70
2019-01-26T20:48:27.393Z,4.80
2019-01-26T20:50:55.773Z,5.57
2019-01-26T20:53:24.152Z,6.03
2019-01-26T20:55:52.544Z,5.27
2019-01-26T20:58:22.576Z,5.63
2019-01-26T21:00:50.968Z,6.23
2019-01-26T21:03:19.357Z,6.77
2019-01-26T21:05:47.804Z,6.70
2019-01-26T21:08:16.645Z,5.60
2019-01-26T21:10:46.689Z,6.60
2019-01-26T21:13:16.818Z,6.40
2019-01-26T21:15:45.741Z,6.53
2019-01-26T21:18:18.478Z,6.67
2019-01-26T21:20:46.869Z,5.60
2019-01-26T21:23:25.766Z,5.40
2019-01-26T21:25:54.161Z,5.30
2019-01-26T21:28:42.141Z,5.37
2019-01-26T21:31:10.589Z,5.17
2019-01-26T21:33:40.626Z,4.73
2019-01-26T21:36:09.068Z,4.73
2019-01-26T21:38:42.813Z,4.93
2019-01-26T21:41:11.192Z,4.67
2019-01-26T21:43:43.473Z,5.10
2019-01-26T21:46:11.854Z,5.03
2019-01-26T21:48:44.886Z,5.57
2019-01-26T21:51:14.305Z,5.23
2019-01-26T21:53:51.096Z,6.00
2019-01-26T21:56:19.608Z,5.57
2019-01-26T21:58:50.897Z,5.50
2019-01-26T22:01:20.377Z,6.23
2019-01-26T22:03:50.637Z,5.47
2019-01-26T22:06:27.281Z,6.03
2019-01-26T22:08:55.652Z,6.10
2019-01-26T22:11:27.025Z,5.90
2019-01-26T22:13:58.107Z,6.10
2019-01-26T22:16:28.226Z,6.23
2019-01-26T22:19:02.363Z,6.40
2019-01-26T22:21:33.582Z,6.97
2019-01-26T22:24:05.340Z,6.67
2019-01-26T22:26:34.500Z,6.63
2019-01-26T22:29:04.285Z,6.60
2019-01-26T22:31:40.009Z,6.57
2019-01-26T22:34:11.129Z,6.53
2019-01-26T22:36:39.508Z,7.27
2019-01-26T22:39:14.841Z,7.20
2019-01-26T22:41:44.878Z,6.40
2019-01-26T22:44:13.249Z,7.07
2019-01-26T22:46:43.423Z,6.87
2019-01-26T22:49:26.057Z,6.80
2019-01-26T22:51:57.405Z,6.60
2019-01-26T22:54:25.791Z,6.40
2019-01-26T22:56:57.137Z,6.50
2019-01-26T22:59:27.181Z,5.73
2019-01-26T23:02:00.595Z,6.70
2019-01-26T23:04:34.929Z,6.50
2019-01-26T23:07:21.051Z,5.80
2019-01-26T23:10:13.401Z,5.83
2019-01-26T23:12:47.287Z,5.77
2019-01-26T23:15:35.280Z,6.33
2019-01-26T23:18:22.056Z,7.00
2019-01-26T23:21:01.299Z,6.80
2019-01-26T23:23:44.738Z,6.63
2019-01-26T23:26:28.069Z,7.23
2019-01-26T23:29:02.556Z,7.67
2019-01-26T23:31:30.934Z,7.10
2019-01-26T23:34:00.969Z,7.43
2019-01-26T23:36:29.361Z,8.20
2019-01-26T23:39:02.467Z,7.87
2019-01-26T23:41:30.986Z,7.77
2019-01-26T23:44:05.379Z,7.57
2019-01-26T23:46:33.782Z,6.77
2019-01-26T23:49:02.573Z,7.67
2019-01-26T23:51:33.624Z,7.03
2019-01-26T23:54:02.009Z,6.40
2019-01-26T23:56:36.500Z,5.80
2019-01-26T23:59:04.891Z,6.13
